createdAt,value
2022-12-25T00:01:09.125Z,100336.97
2022-12-25T00:03:37.691Z,100358.34
2022-12-25T00:06:05.413Z,100338.09
2022-12-25T00:08:32.818Z,100359.44
2022-12-25T00:11:08.898Z,100351.38
2022-12-25T00:13:37.431Z,100356.94
2022-12-25T00:16:10.653Z,100370.09
2022-12-25T00:18:37.411Z,100367.75
2022-12-25T00:21:06.526Z,100368.84
2022-12-25T00:23:34.535Z,100369.09
2022-12-25T00:26:09.127Z,100374.50
2022-12-25T00:28:36.525Z,100373.94
2022-12-25T00:31:15.667Z,100381.00
2022-12-25T00:33:45.221Z,100378.63
2022-12-25T00:36:13.950Z,100380.56
2022-12-25T00:38:42.598Z,100380.81
2022-12-25T00:41:16.560Z,100375.69
2022-12-25T00:43:44.261Z,100379.25
2022-12-25T00:46:13.326Z,100380.25
2022-12-25T00:48:40.363Z,100382.03
2022-12-25T00:51:10.626Z,100368.19
2022-12-25T00:53:38.057Z,100375.13
2022-12-25T00:56:06.707Z,100376.78
2022-12-25T00:58:35.115Z,100360.81
2022-12-25T01:01:03.061Z,100378.44
2022-12-25T01:03:30.560Z,100378.56
2022-12-25T01:06:02.742Z,100378.44
2022-12-25T01:08:32.015Z,100383.72
2022-12-25T01:11:06.335Z,100384.41
2022-12-25T01:13:36.497Z,100393.16
2022-12-25T01:16:08.452Z,100393.03
2022-12-25T01:18:35.972Z,100404.25
2022-12-25T01:21:07.343Z,100400.66
2022-12-25T01:23:34.571Z,100384.41
2022-12-25T01:26:10.315Z,100396.22
2022-12-25T01:28:38.120Z,100403.97
2022-12-25T01:31:13.153Z,100403.03
2022-12-25T01:33:41.325Z,100410.91
2022-12-25T01:36:16.857Z,100407.34
2022-12-25T01:38:44.051Z,100416.19
2022-12-25T01:41:12.879Z,100411.88
2022-12-25T01:44:07.620Z,100410.47
2022-12-25T01:46:35.622Z,100415.16
2022-12-25T01:49:05.533Z,100414.59
2022-12-25T01:52:01.766Z,100413.19
2022-12-25T01:54:38.485Z,100417.63
2022-12-25T01:57:09.255Z,100410.81
2022-12-25T01:59:36.268Z,100399.25
2022-12-25T02:02:04.121Z,100404.97
2022-12-25T02:04:41.671Z,100402.59
2022-12-25T02:07:24.274Z,100406.87
2022-12-25T02:09:52.142Z,100407.03
2022-12-25T02:12:23.200Z,100395.47
2022-12-25T02:14:52.512Z,100407.97
2022-12-25T02:17:34.373Z,100404.91
2022-12-25T02:20:24.385Z,100414.34
2022-12-25T02:23:29.393Z,100422.09
2022-12-25T02:26:25.181Z,100427.37
2022-12-25T02:29:07.187Z,100429.28
2022-12-25T02:31:36.793Z,100426.78
2022-12-25T02:34:15.610Z,100428.59
2022-12-25T02:37:05.857Z,100429.53
2022-12-25T02:39:58.985Z,100417.28
2022-12-25T02:43:12.951Z,100432.41
2022-12-25T02:46:05.063Z,100438.94
2022-12-25T02:48:54.056Z,100442.25
2022-12-25T02:51:43.376Z,100445.12
2022-12-25T02:54:33.151Z,100444.88
2022-12-25T02:57:21.972Z,100448.47
2022-12-25T03:00:10.032Z,100450.41
2022-12-25T03:02:57.427Z,100439.66
2022-12-25T03:05:45.697Z,100457.34
2022-12-25T03:08:24.966Z,100465.22
2022-12-25T03:11:23.043Z,100463.56
2022-12-25T03:13:53.214Z,100471.56
2022-12-25T03:16:39.263Z,100469.75
2022-12-25T03:19:26.329Z,100476.12
2022-12-25T03:22:14.377Z,100480.53
2022-12-25T03:25:00.381Z,100479.84
2022-12-25T03:27:31.832Z,100466.47
2022-12-25T03:30:17.683Z,100483.41
2022-12-25T03:33:36.670Z,100469.22
2022-12-25T03:36:07.779Z,100471.22
2022-12-25T03:39:26.624Z,100487.13
2022-12-25T03:42:18.756Z,100488.94
2022-12-25T03:45:17.652Z,100476.53
2022-12-25T03:48:07.043Z,100496.81
2022-12-25T03:51:03.087Z,100474.84
2022-12-25T03:54:14.547Z,100495.16
2022-12-25T03:57:02.372Z,100498.63
2022-12-25T03:59:47.781Z,100490.38
2022-12-25T04:02:33.335Z,100497.78
2022-12-25T04:05:19.243Z,100496.62
2022-12-25T04:08:04.813Z,100509.16
2022-12-25T04:10:50.592Z,100509.16
2022-12-25T04:13:35.882Z,100509.28
2022-12-25T04:16:21.839Z,100514.78
2022-12-25T04:19:07.660Z,100500.72
2022-12-25T04:21:53.120Z,100516.69
2022-12-25T04:24:38.495Z,100506.91
2022-12-25T04:27:24.274Z,100520.28
2022-12-25T04:30:09.509Z,100510.53
2022-12-25T04:32:55.685Z,100515.78
2022-12-25T04:35:40.779Z,100537.03
2022-12-25T04:38:07.641Z,100527.81
2022-12-25T04:40:34.323Z,100525.31
2022-12-25T04:43:00.922Z,100533.81
2022-12-25T04:45:27.834Z,100535.47
2022-12-25T04:47:54.752Z,100545.87
2022-12-25T04:50:21.771Z,100545.16
2022-12-25T04:52:48.777Z,100547.53
2022-12-25T04:55:15.567Z,100557.25
2022-12-25T04:57:42.405Z,100544.72
2022-12-25T05:00:09.933Z,100541.34
2022-12-25T05:02:36.873Z,100554.72
2022-12-25T05:05:04.268Z,100561.66
2022-12-25T05:07:31.215Z,100561.66
2022-12-25T05:09:58.241Z,100559.13
2022-12-25T05:12:24.891Z,100550.78
2022-12-25T05:14:51.865Z,100566.19
2022-12-25T05:17:18.504Z,100556.31
2022-12-25T05:19:45.113Z,100565.75
2022-12-25T05:22:11.991Z,100576.84
2022-12-25T05:24:38.743Z,100575.03
2022-12-25T05:27:05.463Z,100579.59
2022-12-25T05:29:32.424Z,100575.41
2022-12-25T05:31:59.058Z,100571.25
2022-12-25T05:34:25.804Z,100583.66
2022-12-25T05:36:52.705Z,100596.94
2022-12-25T05:39:19.631Z,100576.75
2022-12-25T05:41:46.435Z,100582.94
2022-12-25T05:44:13.887Z,100599.94
2022-12-25T05:46:40.549Z,100608.75
2022-12-25T05:49:07.271Z,100591.19
2022-12-25T05:51:34.270Z,100601.22
2022-12-25T05:54:00.937Z,100610.81
2022-12-25T05:56:27.618Z,100616.19
2022-12-25T05:58:54.986Z,100607.34
2022-12-25T06:01:28.424Z,100619.16
2022-12-25T06:03:56.852Z,100624.31
2022-12-25T06:06:23.660Z,100625.25
2022-12-25T06:08:53.018Z,100620.00
2022-12-25T06:11:21.133Z,100635.06
2022-12-25T06:13:52.221Z,100636.00
2022-12-25T06:16:19.504Z,100625.28
2022-12-25T06:18:50.067Z,100636.13
2022-12-25T06:21:16.678Z,100651.91
2022-12-25T06:23:43.833Z,100640.78
2022-12-25T06:26:14.250Z,100655.38
2022-12-25T06:28:41.173Z,100643.66
2022-12-25T06:31:14.578Z,100658.84
2022-12-25T06:33:42.269Z,100659.78
2022-12-25T06:36:11.317Z,100662.53
2022-12-25T06:38:37.987Z,100660.84
2022-12-25T06:41:14.121Z,100661.69
2022-12-25T06:43:40.944Z,100677.47
2022-12-25T06:46:10.255Z,100659.19
2022-12-25T06:48:38.224Z,100674.09
2022-12-25T06:51:05.962Z,100672.47
2022-12-25T06:53:39.652Z,100682.13
2022-12-25T06:56:11.128Z,100690.00
2022-12-25T06:58:38.578Z,100686.44
2022-12-25T07:01:15.283Z,100694.31
2022-12-25T07:03:44.136Z,100685.31
2022-12-25T07:06:11.394Z,100701.25
2022-12-25T07:08:38.166Z,100714.28
2022-12-25T07:11:05.467Z,100708.91
2022-12-25T07:13:32.449Z,100719.28
2022-12-25T07:16:00.948Z,100708.78
2022-12-25T07:18:28.851Z,100714.97
2022-12-25T07:20:56.060Z,100724.66
2022-12-25T07:23:23.391Z,100723.81
2022-12-25T07:26:00.981Z,100729.81
2022-12-25T07:28:28.488Z,100733.50
2022-12-25T07:30:55.612Z,100724.41
2022-12-25T07:33:22.278Z,100726.91
2022-12-25T07:35:49.462Z,100730.75
2022-12-25T07:38:16.967Z,100740.69
2022-12-25T07:40:46.460Z,100744.25
2022-12-25T07:43:13.552Z,100746.88
2022-12-25T07:45:40.521Z,100742.56
2022-12-25T07:48:10.647Z,100745.31
2022-12-25T07:50:42.465Z,100739.09
2022-12-25T07:53:09.334Z,100754.16
2022-12-25T07:55:35.966Z,100752.59
2022-12-25T07:58:02.993Z,100755.00
2022-12-25T08:00:32.784Z,100747.34
2022-12-25T08:03:00.134Z,100752.47
2022-12-25T08:05:27.030Z,100751.66
2022-12-25T08:07:57.611Z,100747.34
2022-12-25T08:10:25.186Z,100751.66
2022-12-25T08:12:52.113Z,100758.44
2022-12-25T08:15:18.777Z,100755.69
2022-12-25T08:17:46.198Z,100758.09
2022-12-25T08:20:13.020Z,100753.81
2022-12-25T08:22:39.710Z,100758.09
2022-12-25T08:25:06.892Z,100755.34
2022-12-25T08:27:34.382Z,100757.03
2022-12-25T08:30:01.084Z,100763.03
2022-12-25T08:32:28.009Z,100754.28
2022-12-25T08:34:54.623Z,100758.38
2022-12-25T08:37:21.285Z,100750.00
2022-12-25T08:39:48.177Z,100767.72
2022-12-25T08:42:15.353Z,100767.31
2022-12-25T08:44:42.111Z,100772.13
2022-12-25T08:47:08.982Z,100780.84
2022-12-25T08:49:36.589Z,100774.03
2022-12-25T08:52:03.529Z,100779.06
2022-12-25T08:54:32.525Z,100785.03
2022-12-25T08:57:02.969Z,100777.13
2022-12-25T08:59:30.604Z,100789.22
2022-12-25T09:01:57.348Z,100789.69
2022-12-25T09:04:24.165Z,100786.94
2022-12-25T09:06:51.150Z,100793.78
2022-12-25T09:09:17.758Z,100785.78
2022-12-25T09:11:44.534Z,100789.97
2022-12-25T09:14:13.611Z,100778.97
2022-12-25T09:16:40.239Z,100785.19
2022-12-25T09:19:06.920Z,100785.69
2022-12-25T09:21:33.962Z,100789.97
2022-12-25T09:24:00.578Z,100786.63
2022-12-25T09:26:27.304Z,100779.94
2022-12-25T09:28:54.397Z,100801.00
2022-12-25T09:31:22.776Z,100802.66
2022-12-25T09:33:50.775Z,100807.72
2022-12-25T09:36:17.998Z,100812.84
2022-12-25T09:38:45.064Z,100811.06
2022-12-25T09:41:31.795Z,100818.00
2022-12-25T09:44:12.042Z,100821.81
2022-12-25T09:46:47.624Z,100833.03
2022-12-25T09:49:43.218Z,100833.78
2022-12-25T09:52:16.833Z,100828.41
2022-12-25T09:54:57.995Z,100836.06
2022-12-25T09:57:26.308Z,100828.06
2022-12-25T09:59:57.035Z,100833.31
2022-12-25T10:02:56.553Z,100833.19
2022-12-25T10:05:47.778Z,100833.31
2022-12-25T10:08:33.758Z,100831.62
2022-12-25T10:11:16.207Z,100829.81
2022-12-25T10:14:02.371Z,100818.00
2022-12-25T10:16:55.151Z,100840.09
2022-12-25T10:19:40.732Z,100832.09
2022-12-25T10:22:21.692Z,100838.09
2022-12-25T10:24:52.430Z,100835.34
2022-12-25T10:27:26.851Z,100840.37
2022-12-25T10:29:55.062Z,100829.97
2022-12-25T10:32:22.912Z,100829.59
2022-12-25T10:34:50.608Z,100830.56
2022-12-25T10:37:17.937Z,100828.66
2022-12-25T10:39:46.863Z,100824.22
2022-12-25T10:42:30.558Z,100834.75
2022-12-25T10:45:03.080Z,100846.09
2022-12-25T10:47:33.304Z,100844.34
2022-12-25T10:50:07.783Z,100843.34
2022-12-25T10:52:34.779Z,100846.97
2022-12-25T10:55:12.228Z,100861.53
2022-12-25T10:57:46.291Z,100841.94
2022-12-25T11:00:21.863Z,100850.53
2022-12-25T11:02:49.833Z,100857.50
2022-12-25T11:05:43.288Z,100870.78
2022-12-25T11:08:21.546Z,100874.22
2022-12-25T11:11:06.093Z,100872.44
2022-12-25T11:13:36.410Z,100882.13
2022-12-25T11:16:13.379Z,100878.78
2022-12-25T11:18:49.631Z,100870.87
2022-12-25T11:21:38.188Z,100863.34
2022-12-25T11:24:17.033Z,100868.84
2022-12-25T11:26:50.794Z,100873.16
2022-12-25T11:29:51.299Z,100875.69
2022-12-25T11:32:25.318Z,100874.72
2022-12-25T11:34:53.572Z,100881.56
2022-12-25T11:37:28.061Z,100880.69
2022-12-25T11:39:54.820Z,100880.69
2022-12-25T11:42:40.026Z,100880.34
2022-12-25T11:45:07.218Z,100880.81
2022-12-25T11:47:50.145Z,100889.94
2022-12-25T11:50:28.499Z,100876.75
2022-12-25T11:52:58.204Z,100895.56
2022-12-25T11:55:42.558Z,100885.97
2022-12-25T11:58:23.222Z,100902.50
2022-12-25T12:00:53.470Z,100890.53
2022-12-25T12:03:27.120Z,100896.50
2022-12-25T12:06:03.718Z,100897.25
2022-12-25T12:08:33.242Z,100897.13
2022-12-25T12:11:25.385Z,100896.38
2022-12-25T12:14:25.974Z,100902.00
2022-12-25T12:16:52.861Z,100917.31
2022-12-25T12:19:26.809Z,100907.25
2022-12-25T12:21:57.059Z,100924.50
2022-12-25T12:24:28.976Z,100929.78
2022-12-25T12:27:27.593Z,100932.41
2022-12-25T12:29:58.507Z,100942.94
2022-12-25T12:32:44.674Z,100947.38
2022-12-25T12:35:20.375Z,100943.16
2022-12-25T12:37:51.445Z,100952.97
2022-12-25T12:40:23.941Z,100957.97
2022-12-25T12:42:52.332Z,100961.94
2022-12-25T12:45:25.291Z,100956.91
2022-12-25T12:47:53.318Z,100968.16
2022-12-25T12:50:40.843Z,100967.34
2022-12-25T12:53:23.394Z,100962.06
2022-12-25T12:55:51.907Z,100959.66
2022-12-25T12:58:34.111Z,100958.94
2022-12-25T13:01:14.223Z,100947.31
2022-12-25T13:03:47.650Z,100973.19
2022-12-25T13:06:26.814Z,100974.94
2022-12-25T13:09:27.644Z,100975.94
2022-12-25T13:11:54.807Z,100980.31
2022-12-25T13:14:23.796Z,100981.31
2022-12-25T13:16:54.557Z,100990.25
2022-12-25T13:19:24.012Z,100986.06
2022-12-25T13:22:03.820Z,100987.13
2022-12-25T13:24:33.967Z,100979.91
2022-12-25T13:27:01.348Z,100973.09
2022-12-25T13:29:35.178Z,100998.97
2022-12-25T13:32:05.731Z,100990.31
2022-12-25T13:34:39.627Z,101000.97
2022-12-25T13:37:18.857Z,100990.16
2022-12-25T13:40:07.201Z,101002.75
2022-12-25T13:42:36.633Z,101004.78
2022-12-25T13:45:08.170Z,101013.50
2022-12-25T13:47:38.188Z,101017.19
2022-12-25T13:50:23.669Z,101016.37
2022-12-25T13:52:51.091Z,101029.75
2022-12-25T13:55:20.351Z,101028.06
2022-12-25T13:57:52.708Z,101033.44
2022-12-25T14:00:28.109Z,101029.34
2022-12-25T14:02:55.327Z,101034.47
2022-12-25T14:05:41.708Z,101027.78
2022-12-25T14:08:19.389Z,101038.19
2022-12-25T14:10:49.321Z,101027.50
2022-12-25T14:13:20.066Z,101040.09
2022-12-25T14:15:48.595Z,101052.28
2022-12-25T14:18:18.072Z,101048.94
2022-12-25T14:21:07.463Z,101051.56
2022-12-25T14:23:46.453Z,101061.25
2022-12-25T14:26:24.246Z,101061.34
2022-12-25T14:29:09.184Z,101073.34
2022-12-25T14:31:42.884Z,101070.72
2022-12-25T14:34:18.101Z,101070.72
2022-12-25T14:36:45.520Z,101069.88
2022-12-25T14:39:38.602Z,101084.91
2022-12-25T14:42:21.861Z,101081.66
2022-12-25T14:45:23.904Z,101089.56
2022-12-25T14:47:53.609Z,101087.03
2022-12-25T14:50:39.795Z,101085.47
2022-12-25T14:53:20.049Z,101089.88
2022-12-25T14:55:50.659Z,101093.56
2022-12-25T14:58:23.906Z,101083.72
2022-12-25T15:00:56.751Z,101093.78
2022-12-25T15:03:30.832Z,101111.25
2022-12-25T15:06:02.816Z,101103.91
2022-12-25T15:08:31.612Z,101119.97
2022-12-25T15:11:02.176Z,101122.59
2022-12-25T15:13:31.080Z,101114.81
2022-12-25T15:16:09.185Z,101112.31
2022-12-25T15:18:43.412Z,101120.91
2022-12-25T15:21:31.573Z,101114.94
2022-12-25T15:24:00.052Z,101126.28
2022-12-25T15:26:29.156Z,101116.84
2022-12-25T15:28:56.039Z,101115.91
2022-12-25T15:31:31.180Z,101130.22
2022-12-25T15:34:00.273Z,101129.34
2022-12-25T15:36:27.843Z,101132.94
2022-12-25T15:38:55.831Z,101131.97
2022-12-25T15:41:45.383Z,101131.16
2022-12-25T15:44:12.928Z,101127.69
2022-12-25T15:46:40.109Z,101132.19
2022-12-25T15:49:07.081Z,101140.28
2022-12-25T15:51:34.152Z,101141.25
2022-12-25T15:54:00.792Z,101143.03
2022-12-25T15:56:28.182Z,101146.72
2022-12-25T15:58:55.918Z,101156.28
2022-12-25T16:01:22.774Z,101142.31
2022-12-25T16:03:49.957Z,101136.94
2022-12-25T16:06:18.455Z,101143.13
2022-12-25T16:08:45.840Z,101149.37
2022-12-25T16:11:12.857Z,101149.37
2022-12-25T16:13:39.535Z,101146.84
2022-12-25T16:16:06.978Z,101145.16
2022-12-25T16:18:34.304Z,101142.09
2022-12-25T16:21:01.093Z,101146.19
2022-12-25T16:23:27.734Z,101143.56
2022-12-25T16:25:54.621Z,101148.72
2022-12-25T16:28:21.271Z,101148.59
2022-12-25T16:30:48.276Z,101150.50
2022-12-25T16:33:15.558Z,101150.84
2022-12-25T16:35:42.451Z,101154.41
2022-12-25T16:38:09.140Z,101155.22
2022-12-25T16:40:36.097Z,101148.41
2022-12-25T16:43:02.764Z,101148.41
2022-12-25T16:45:29.409Z,101146.00
2022-12-25T16:47:57.518Z,101148.75
2022-12-25T16:50:24.463Z,101159.47
2022-12-25T16:52:51.342Z,101157.03
2022-12-25T16:55:18.526Z,101167.00
2022-12-25T16:57:47.761Z,101160.81
2022-12-25T17:00:14.938Z,101160.91
2022-12-25T17:02:42.233Z,101161.03
2022-12-25T17:05:09.467Z,101155.78
2022-12-25T17:07:37.635Z,101161.25
2022-12-25T17:10:06.198Z,101173.50
2022-12-25T17:12:34.102Z,101178.97
2022-12-25T17:15:00.821Z,101189.37
2022-12-25T17:17:27.851Z,101181.59
2022-12-25T17:19:54.455Z,101191.19
2022-12-25T17:22:21.381Z,101182.34
2022-12-25T17:24:48.408Z,101191.28
2022-12-25T17:27:15.370Z,101193.81
2022-12-25T17:29:43.868Z,101177.84
2022-12-25T17:32:11.661Z,101188.66
2022-12-25T17:34:38.669Z,101180.47
2022-12-25T17:37:06.101Z,101179.81
2022-12-25T17:39:33.879Z,101181.81
2022-12-25T17:42:00.667Z,101184.94
2022-12-25T17:44:27.399Z,101177.06
2022-12-25T17:46:54.393Z,101180.00
2022-12-25T17:49:22.122Z,101190.19
2022-12-25T17:51:49.037Z,101207.81
2022-12-25T17:54:16.523Z,101205.41
2022-12-25T17:56:43.388Z,101211.50
2022-12-25T17:59:18.217Z,101223.87
2022-12-25T18:01:47.149Z,101205.28
2022-12-25T18:04:14.363Z,101211.06
2022-12-25T18:06:41.107Z,101198.12
2022-12-25T18:09:09.781Z,101192.53
2022-12-25T18:11:42.267Z,101211.34
2022-12-25T18:14:11.354Z,101202.38
2022-12-25T18:16:40.932Z,101221.97
2022-12-25T18:19:08.781Z,101226.28
2022-12-25T18:21:35.560Z,101231.62
2022-12-25T18:24:04.231Z,101233.50
2022-12-25T18:26:30.985Z,101237.91
2022-12-25T18:28:57.872Z,101236.13
2022-12-25T18:31:27.868Z,101242.34
2022-12-25T18:33:54.616Z,101228.00
2022-12-25T18:36:24.002Z,101244.97
2022-12-25T18:38:52.969Z,101243.66
2022-12-25T18:41:21.287Z,101248.72
2022-12-25T18:43:52.987Z,101256.50
2022-12-25T18:46:25.536Z,101249.53
2022-12-25T18:48:54.379Z,101247.88
2022-12-25T18:51:21.201Z,101243.66
2022-12-25T18:53:48.282Z,101236.09
2022-12-25T18:56:17.721Z,101252.38
2022-12-25T18:58:46.188Z,101256.78
2022-12-25T19:01:23.169Z,101261.31
2022-12-25T19:03:51.677Z,101245.19
2022-12-25T19:06:27.020Z,101254.47
2022-12-25T19:08:54.785Z,101258.88
2022-12-25T19:11:22.329Z,101254.47
2022-12-25T19:13:48.995Z,101263.25
2022-12-25T19:16:16.474Z,101248.94
2022-12-25T19:18:44.944Z,101265.78
2022-12-25T19:21:11.671Z,101272.75
2022-12-25T19:23:38.828Z,101273.56
2022-12-25T19:26:07.611Z,101278.91
2022-12-25T19:28:34.916Z,101263.66
2022-12-25T19:31:03.903Z,101273.66
2022-12-25T19:33:32.160Z,101264.50
2022-12-25T19:36:02.349Z,101279.69
2022-12-25T19:38:29.254Z,101278.81
2022-12-25T19:41:02.675Z,101278.00
2022-12-25T19:43:35.936Z,101286.50
2022-12-25T19:46:03.903Z,101285.03
2022-12-25T19:48:32.415Z,101286.06
2022-12-25T19:50:59.420Z,101290.19
2022-12-25T19:53:27.923Z,101287.66
2022-12-25T19:55:54.857Z,101297.38
2022-12-25T19:58:23.262Z,101297.50
2022-12-25T20:01:07.399Z,101300.00
2022-12-25T20:03:40.195Z,101300.97
2022-12-25T20:06:20.048Z,101297.50
2022-12-25T20:08:48.791Z,101293.66
2022-12-25T20:11:16.350Z,101314.25
2022-12-25T20:13:43.458Z,101301.63
2022-12-25T20:16:11.221Z,101309.00
2022-12-25T20:18:39.095Z,101316.16
2022-12-25T20:21:11.172Z,101309.22
2022-12-25T20:23:38.879Z,101313.62
2022-12-25T20:26:07.272Z,101309.22
2022-12-25T20:28:36.414Z,101311.00
2022-12-25T20:31:14.623Z,101310.25
2022-12-25T20:33:41.357Z,101315.50
2022-12-25T20:36:08.562Z,101319.81
2022-12-25T20:38:37.018Z,101314.94
2022-12-25T20:43:52.355Z,101345.84
2022-12-25T20:46:19.288Z,101335.47
2022-12-25T20:48:46.064Z,101330.97
2022-12-25T20:51:18.211Z,101336.31
2022-12-25T20:53:45.924Z,101336.31
2022-12-25T20:56:15.504Z,101323.69
2022-12-25T20:58:46.089Z,101343.44
2022-12-25T21:01:17.631Z,101347.00
2022-12-25T21:03:45.364Z,101352.25
2022-12-25T21:06:12.806Z,101349.63
2022-12-25T21:08:43.807Z,101361.06
2022-12-25T21:11:11.665Z,101361.16
2022-12-25T21:13:41.860Z,101358.53
2022-12-25T21:16:11.676Z,101361.25
2022-12-25T21:18:38.938Z,101362.09
2022-12-25T21:21:07.900Z,101350.31
2022-12-25T21:23:36.579Z,101360.41
2022-12-25T21:26:18.332Z,101347.38
2022-12-25T21:28:50.440Z,101350.75
2022-12-25T21:31:17.928Z,101363.88
2022-12-25T21:33:55.074Z,101347.78
2022-12-25T21:36:30.597Z,101341.66
2022-12-25T21:39:00.605Z,101350.75
2022-12-25T21:41:28.955Z,101349.91
2022-12-25T21:43:56.568Z,101350.75
2022-12-25T21:46:24.697Z,101333.69
2022-12-25T21:48:52.089Z,101346.34
2022-12-25T21:51:40.656Z,101341.28
2022-12-25T21:54:08.487Z,101334.25
2022-12-25T21:56:43.572Z,101304.94
2022-12-25T21:59:15.163Z,101323.38
2022-12-25T22:01:42.593Z,101334.38
2022-12-25T22:04:11.119Z,101326.78
2022-12-25T22:06:56.669Z,101334.19
2022-12-25T22:09:24.010Z,101335.00
2022-12-25T22:12:09.026Z,101342.97
2022-12-25T22:14:54.965Z,101329.22
2022-12-25T22:17:45.742Z,101338.75
2022-12-25T22:20:16.177Z,101328.44
2022-12-25T22:22:43.323Z,101328.63
2022-12-25T22:25:10.916Z,101311.75
2022-12-25T22:27:39.131Z,101311.56
2022-12-25T22:30:09.221Z,101319.25
2022-12-25T22:32:35.998Z,101319.84
2022-12-25T22:35:03.674Z,101312.78
2022-12-25T22:37:30.378Z,101321.69
2022-12-25T22:39:57.359Z,101326.94
2022-12-25T22:42:24.397Z,101329.56
2022-12-25T22:44:51.106Z,101321.97
2022-12-25T22:47:17.757Z,101328.53
2022-12-25T22:49:44.750Z,101333.13
2022-12-25T22:52:11.465Z,101336.69
2022-12-25T22:54:38.183Z,101332.94
2022-12-25T22:57:05.772Z,101342.88
2022-12-25T22:59:33.039Z,101324.13
2022-12-25T23:02:00.192Z,101328.56
2022-12-25T23:04:28.281Z,101330.03
2022-12-25T23:06:55.244Z,101337.81
2022-12-25T23:09:27.405Z,101342.13
2022-12-25T23:11:56.930Z,101345.69
2022-12-25T23:14:40.179Z,101351.13
2022-12-25T23:17:30.566Z,101360.69
2022-12-25T23:20:18.394Z,101370.25
2022-12-25T23:23:05.261Z,101371.91
2022-12-25T23:25:53.705Z,101363.50
2022-12-25T23:28:39.876Z,101364.31
2022-12-25T23:31:07.077Z,101376.25
2022-12-25T23:33:34.075Z,101363.69
2022-12-25T23:36:00.753Z,101372.87
2022-12-25T23:38:27.490Z,101348.87
2022-12-25T23:40:54.489Z,101376.44
2022-12-25T23:43:21.176Z,101382.50
2022-12-25T23:45:47.816Z,101378.31
2022-12-25T23:48:14.910Z,101379.06
2022-12-25T23:50:41.677Z,101374.91
2022-12-25T23:53:09.279Z,101384.22
2022-12-25T23:55:36.434Z,101378.97
2022-12-25T23:58:03.158Z,101367.03
